sensor_id;sensor_type;location;lat;lon;timestamp;noise_LAeq;noise_LA_min;noise_LA_max;noise_LA01;noise_LA95
78837;Laerm;72468;51.680;5.976;2024-03-08T00:00:22;37.5;29.56;57.36;;
78837;Laerm;72468;51.680;5.976;2024-03-08T00:04:22;31.22;29.68;46.87;;
78837;Laerm;72468;51.680;5.976;2024-03-08T00:08:22;36.79;29.53;54.33;;
78837;Laerm;72468;51.680;5.976;2024-03-08T00:12:21;31.29;29.72;35.09;;
78837;Laerm;72468;51.680;5.976;2024-03-08T00:16:21;33.94;29.52;50.15;;
78837;Laerm;72468;51.680;5.976;2024-03-08T00:20:21;30.95;29.57;33.32;;
78837;Laerm;72468;51.680;5.976;2024-03-08T00:24:21;30.97;29.43;34.48;;
78837;Laerm;72468;51.680;5.976;2024-03-08T00:28:21;34.36;29.68;52.26;;
78837;Laerm;72468;51.680;5.976;2024-03-08T00:32:21;34.08;29.66;50.07;;
78837;Laerm;72468;51.680;5.976;2024-03-08T00:36:21;31.26;29.65;35.63;;
78837;Laerm;72468;51.680;5.976;2024-03-08T00:40:22;33.27;29.46;51.52;;
78837;Laerm;72468;51.680;5.976;2024-03-08T00:44:21;33.17;29.78;48.38;;
78837;Laerm;72468;51.680;5.976;2024-03-08T00:48:22;31.12;29.51;33.66;;
78837;Laerm;72468;51.680;5.976;2024-03-08T00:52:22;31.27;29.6;35;;
78837;Laerm;72468;51.680;5.976;2024-03-08T00:56:22;31.35;29.46;41.92;;
78837;Laerm;72468;51.680;5.976;2024-03-08T01:00:22;31.35;29.8;36.45;;
78837;Laerm;72468;51.680;5.976;2024-03-08T01:04:22;31.24;29.85;34.51;;
78837;Laerm;72468;51.680;5.976;2024-03-08T01:08:22;31.42;29.83;35.27;;
78837;Laerm;72468;51.680;5.976;2024-03-08T01:12:22;32.65;29.58;47.03;;
78837;Laerm;72468;51.680;5.976;2024-03-08T01:16:21;31.11;29.87;34.55;;
78837;Laerm;72468;51.680;5.976;2024-03-08T01:20:21;31.36;29.68;37.35;;
78837;Laerm;72468;51.680;5.976;2024-03-08T01:24:21;31.47;29.84;41.69;;
78837;Laerm;72468;51.680;5.976;2024-03-08T01:28:22;30.99;29.28;37.91;;
78837;Laerm;72468;51.680;5.976;2024-03-08T01:32:21;31.14;29.61;36.84;;
78837;Laerm;72468;51.680;5.976;2024-03-08T01:36:22;31.13;29.56;36.36;;
78837;Laerm;72468;51.680;5.976;2024-03-08T01:40:21;30.94;29.59;32.82;;
78837;Laerm;72468;51.680;5.976;2024-03-08T01:44:21;31.26;29.72;39.26;;
78837;Laerm;72468;51.680;5.976;2024-03-08T01:48:22;31.16;29.85;38.16;;
78837;Laerm;72468;51.680;5.976;2024-03-08T01:52:21;31.61;29.72;44.18;;
78837;Laerm;72468;51.680;5.976;2024-03-08T01:56:22;31.42;30.03;37.42;;
78837;Laerm;72468;51.680;5.976;2024-03-08T02:00:21;37.2;29.63;57.69;;
78837;Laerm;72468;51.680;5.976;2024-03-08T02:04:22;31.02;29.8;32.98;;
78837;Laerm;72468;51.680;5.976;2024-03-08T02:08:22;35.52;29.82;52.84;;
78837;Laerm;72468;51.680;5.976;2024-03-08T02:12:22;31.45;29.81;39.14;;
78837;Laerm;72468;51.680;5.976;2024-03-08T02:16:21;31.37;29.83;34.45;;
78837;Laerm;72468;51.680;5.976;2024-03-08T02:20:21;38.35;30.08;56.31;;
78837;Laerm;72468;51.680;5.976;2024-03-08T02:24:21;31.77;29.66;44.94;;
78837;Laerm;72468;51.680;5.976;2024-03-08T02:28:22;31.4;29.74;39.97;;
78837;Laerm;72468;51.680;5.976;2024-03-08T02:32:21;31.46;29.87;42.48;;
78837;Laerm;72468;51.680;5.976;2024-03-08T02:36:21;31.36;29.87;40.61;;
78837;Laerm;72468;51.680;5.976;2024-03-08T02:40:21;35.23;30;44.39;;
78837;Laerm;72468;51.680;5.976;2024-03-08T02:44:21;31.57;29.9;34.58;;
78837;Laerm;72468;51.680;5.976;2024-03-08T02:48:21;32.36;30.24;41.47;;
78837;Laerm;72468;51.680;5.976;2024-03-08T02:52:21;31.93;30.07;37.26;;
78837;Laerm;72468;51.680;5.976;2024-03-08T02:56:21;40.78;30.26;55.69;;
78837;Laerm;72468;51.680;5.976;2024-03-08T03:00:22;37.82;29.72;54.63;;
78837;Laerm;72468;51.680;5.976;2024-03-08T03:04:21;31.12;29.65;33.68;;
78837;Laerm;72468;51.680;5.976;2024-03-08T03:08:21;34.96;29.98;52.33;;
78837;Laerm;72468;51.680;5.976;2024-03-08T03:12:22;31.78;29.99;47.18;;
78837;Laerm;72468;51.680;5.976;2024-03-08T03:16:22;31.5;29.97;37.06;;
78837;Laerm;72468;51.680;5.976;2024-03-08T03:20:21;31.64;29.83;39.68;;
78837;Laerm;72468;51.680;5.976;2024-03-08T03:24:21;31.63;30.06;41.61;;
78837;Laerm;72468;51.680;5.976;2024-03-08T03:28:21;31.35;30.17;34.41;;
78837;Laerm;72468;51.680;5.976;2024-03-08T03:32:21;31.62;30;37.12;;
78837;Laerm;72468;51.680;5.976;2024-03-08T03:36:21;36.92;29.88;55.55;;
78837;Laerm;72468;51.680;5.976;2024-03-08T03:40:21;37.35;30.14;57.7;;
78837;Laerm;72468;51.680;5.976;2024-03-08T03:44:21;31.84;30.23;34.87;;
78837;Laerm;72468;51.680;5.976;2024-03-08T03:48:21;38.75;30.64;57.4;;
78837;Laerm;72468;51.680;5.976;2024-03-08T03:52:22;32.51;30.16;36.35;;
78837;Laerm;72468;51.680;5.976;2024-03-08T03:56:24;38.19;30.77;55.61;;
78837;Laerm;72468;51.680;5.976;2024-03-08T04:00:21;32.9;30.36;42.57;;
78837;Laerm;72468;51.680;5.976;2024-03-08T04:04:21;39.47;30.73;57.15;;
78837;Laerm;72468;51.680;5.976;2024-03-08T04:08:22;35.47;31.14;51.08;;
78837;Laerm;72468;51.680;5.976;2024-03-08T04:12:21;37.85;31.36;53.88;;
78837;Laerm;72468;51.680;5.976;2024-03-08T04:16:22;38.15;30.88;53.53;;
78837;Laerm;72468;51.680;5.976;2024-03-08T04:20:21;40.01;31.27;55.12;;
78837;Laerm;72468;51.680;5.976;2024-03-08T04:24:21;40.02;31.47;57.7;;
78837;Laerm;72468;51.680;5.976;2024-03-08T04:28:21;41.17;31.13;55.26;;
78837;Laerm;72468;51.680;5.976;2024-03-08T04:32:21;42.61;31.81;60.56;;
78837;Laerm;72468;51.680;5.976;2024-03-08T04:36:21;42.58;32.81;54.8;;
78837;Laerm;72468;51.680;5.976;2024-03-08T04:40:21;42.11;31.74;55.64;;
78837;Laerm;72468;51.680;5.976;2024-03-08T04:44:22;41.28;31.28;57.81;;
78837;Laerm;72468;51.680;5.976;2024-03-08T04:48:21;42.58;31.41;58.49;;
78837;Laerm;72468;51.680;5.976;2024-03-08T04:52:21;42.84;31.25;57.23;;
78837;Laerm;72468;51.680;5.976;2024-03-08T04:56:21;43.2;31.66;59.01;;
78837;Laerm;72468;51.680;5.976;2024-03-08T05:00:21;45.37;31.49;64.71;;
78837;Laerm;72468;51.680;5.976;2024-03-08T05:04:21;40.45;31.5;54.64;;
78837;Laerm;72468;51.680;5.976;2024-03-08T05:08:21;44.99;32.38;59.6;;
78837;Laerm;72468;51.680;5.976;2024-03-08T05:12:21;45.08;32.35;58.69;;
78837;Laerm;72468;51.680;5.976;2024-03-08T05:16:21;45.65;33.63;57.79;;
78837;Laerm;72468;51.680;5.976;2024-03-08T05:20:22;42.03;32.52;55.31;;
78837;Laerm;72468;51.680;5.976;2024-03-08T05:24:21;45.48;32.04;58.33;;
78837;Laerm;72468;51.680;5.976;2024-03-08T05:28:21;45.02;32.9;60.92;;
78837;Laerm;72468;51.680;5.976;2024-03-08T05:32:21;43.38;33.26;57.54;;
78837;Laerm;72468;51.680;5.976;2024-03-08T05:36:21;46.73;33.76;61.68;;
78837;Laerm;72468;51.680;5.976;2024-03-08T05:40:21;43.12;33.36;55.95;;
78837;Laerm;72468;51.680;5.976;2024-03-08T05:44:21;45.46;34.97;57.66;;
78837;Laerm;72468;51.680;5.976;2024-03-08T05:48:21;45.54;34.93;58.38;;
78837;Laerm;72468;51.680;5.976;2024-03-08T05:52:21;45;35.02;57.88;;
78837;Laerm;72468;51.680;5.976;2024-03-08T05:56:21;47.73;35.79;65.15;;
78837;Laerm;72468;51.680;5.976;2024-03-08T06:00:21;46.3;35.15;58.19;;
78837;Laerm;72468;51.680;5.976;2024-03-08T06:04:21;42.4;34.16;58.51;;
78837;Laerm;72468;51.680;5.976;2024-03-08T06:08:21;46.54;34.4;61.74;;
78837;Laerm;72468;51.680;5.976;2024-03-08T06:12:21;43.26;34.69;55.27;;
78837;Laerm;72468;51.680;5.976;2024-03-08T06:16:21;45.53;34.46;58.11;;
78837;Laerm;72468;51.680;5.976;2024-03-08T06:20:21;49.87;34.38;64.17;;
78837;Laerm;72468;51.680;5.976;2024-03-08T06:24:22;46.49;34.61;57.35;;
78837;Laerm;72468;51.680;5.976;2024-03-08T06:28:21;44.26;33.55;58.29;;
78837;Laerm;72468;51.680;5.976;2024-03-08T06:32:21;46.52;34.7;63.3;;
78837;Laerm;72468;51.680;5.976;2024-03-08T06:36:21;44.9;34.56;56.46;;
78837;Laerm;72468;51.680;5.976;2024-03-08T06:40:21;48.51;34.38;64.24;;
78837;Laerm;72468;51.680;5.976;2024-03-08T06:44:21;47.53;35.24;62.37;;
78837;Laerm;72468;51.680;5.976;2024-03-08T06:48:21;44.31;35.6;57.1;;
78837;Laerm;72468;51.680;5.976;2024-03-08T06:52:21;47.67;34.87;60.04;;
78837;Laerm;72468;51.680;5.976;2024-03-08T06:56:21;46.17;35.66;57.01;;
78837;Laerm;72468;51.680;5.976;2024-03-08T07:00:21;48;35.34;62.69;;
78837;Laerm;72468;51.680;5.976;2024-03-08T07:04:21;45.87;34.68;56.48;;
78837;Laerm;72468;51.680;5.976;2024-03-08T07:08:21;48.5;34.88;64.88;;
78837;Laerm;72468;51.680;5.976;2024-03-08T07:12:21;47.91;35.04;59.79;;
78837;Laerm;72468;51.680;5.976;2024-03-08T07:16:22;47.74;36.65;66.93;;
78837;Laerm;72468;51.680;5.976;2024-03-08T07:20:21;47.17;39;57.36;;
78837;Laerm;72468;51.680;5.976;2024-03-08T07:24:21;46.83;37.86;58.5;;
78837;Laerm;72468;51.680;5.976;2024-03-08T07:28:21;46.84;38.93;59.1;;
78837;Laerm;72468;51.680;5.976;2024-03-08T07:32:21;48.52;37.87;57.53;;
78837;Laerm;72468;51.680;5.976;2024-03-08T07:36:21;48.11;37.73;58.54;;
78837;Laerm;72468;51.680;5.976;2024-03-08T07:40:21;46.55;38.03;59.87;;
78837;Laerm;72468;51.680;5.976;2024-03-08T07:44:21;46.57;37.74;62.71;;
78837;Laerm;72468;51.680;5.976;2024-03-08T07:48:21;47.92;37.43;59.45;;
78837;Laerm;72468;51.680;5.976;2024-03-08T07:52:21;45.13;36.06;58.72;;
78837;Laerm;72468;51.680;5.976;2024-03-08T07:56:21;46.46;36.94;60.23;;
78837;Laerm;72468;51.680;5.976;2024-03-08T08:00:21;47.76;36.08;60.8;;
78837;Laerm;72468;51.680;5.976;2024-03-08T08:04:21;45.77;37.32;56.18;;
78837;Laerm;72468;51.680;5.976;2024-03-08T08:08:21;49.36;37.11;68.47;;
78837;Laerm;72468;51.680;5.976;2024-03-08T08:12:21;46.57;37.22;55.82;;
78837;Laerm;72468;51.680;5.976;2024-03-08T08:16:22;44.53;35.75;55.72;;
78837;Laerm;72468;51.680;5.976;2024-03-08T08:20:22;48.09;35.89;61.57;;
78837;Laerm;72468;51.680;5.976;2024-03-08T08:24:21;47.35;36.35;58.18;;
78837;Laerm;72468;51.680;5.976;2024-03-08T08:28:21;46.14;35.71;60.89;;
78837;Laerm;72468;51.680;5.976;2024-03-08T08:32:21;46.22;35.75;59;;
78837;Laerm;72468;51.680;5.976;2024-03-08T08:36:21;46.96;35.66;59.63;;
78837;Laerm;72468;51.680;5.976;2024-03-08T08:40:21;49.22;36.17;64.38;;
78837;Laerm;72468;51.680;5.976;2024-03-08T08:44:21;48.06;35.42;59.36;;
78837;Laerm;72468;51.680;5.976;2024-03-08T08:48:21;45.48;36.84;56.29;;
78837;Laerm;72468;51.680;5.976;2024-03-08T08:52:21;46.18;36.15;56.85;;
78837;Laerm;72468;51.680;5.976;2024-03-08T08:56:21;46.77;39.47;56.91;;
78837;Laerm;72468;51.680;5.976;2024-03-08T09:00:22;43.91;36.48;55.95;;
78837;Laerm;72468;51.680;5.976;2024-03-08T09:04:21;46.82;39.59;58.9;;
78837;Laerm;72468;51.680;5.976;2024-03-08T09:08:21;45.74;36.55;57.23;;
78837;Laerm;72468;51.680;5.976;2024-03-08T09:12:21;46.11;36.71;60.49;;
78837;Laerm;72468;51.680;5.976;2024-03-08T09:16:21;46.82;36.77;58.13;;
78837;Laerm;72468;51.680;5.976;2024-03-08T09:20:21;48.3;35.55;60.82;;
78837;Laerm;72468;51.680;5.976;2024-03-08T09:24:21;46.91;35.9;59.12;;
78837;Laerm;72468;51.680;5.976;2024-03-08T09:28:21;46.25;37.84;59.08;;
78837;Laerm;72468;51.680;5.976;2024-03-08T09:32:21;48.75;39.33;61.68;;
78837;Laerm;72468;51.680;5.976;2024-03-08T09:36:21;47.91;37.95;61.21;;
78837;Laerm;72468;51.680;5.976;2024-03-08T09:40:21;46.99;35.65;61.78;;
78837;Laerm;72468;51.680;5.976;2024-03-08T09:44:21;45.37;37.35;59.99;;
78837;Laerm;72468;51.680;5.976;2024-03-08T09:48:21;45.93;36.11;57.8;;
78837;Laerm;72468;51.680;5.976;2024-03-08T09:52:21;46.33;36.15;58.59;;
78837;Laerm;72468;51.680;5.976;2024-03-08T09:56:21;46.35;37.22;59.73;;
78837;Laerm;72468;51.680;5.976;2024-03-08T10:00:21;45.66;37.71;60.59;;
78837;Laerm;72468;51.680;5.976;2024-03-08T10:04:21;48.29;37.54;65.11;;
78837;Laerm;72468;51.680;5.976;2024-03-08T10:08:21;45.93;37;59.02;;
78837;Laerm;72468;51.680;5.976;2024-03-08T10:12:21;47.28;40.53;58.67;;
78837;Laerm;72468;51.680;5.976;2024-03-08T10:16:21;47.82;37.84;59.22;;
78837;Laerm;72468;51.680;5.976;2024-03-08T10:20:21;48.03;36.31;60.82;;
78837;Laerm;72468;51.680;5.976;2024-03-08T10:24:22;46.24;36.29;57.29;;
78837;Laerm;72468;51.680;5.976;2024-03-08T10:28:22;45.44;37.36;57.18;;
78837;Laerm;72468;51.680;5.976;2024-03-08T10:32:21;46.48;36.7;59.85;;
78837;Laerm;72468;51.680;5.976;2024-03-08T10:36:21;45.19;36.94;56.14;;
78837;Laerm;72468;51.680;5.976;2024-03-08T10:40:21;45.84;35.68;58.43;;
78837;Laerm;72468;51.680;5.976;2024-03-08T10:44:26;48.12;38.19;64.68;;
78837;Laerm;72468;51.680;5.976;2024-03-08T10:48:25;46.69;36.28;56.24;;
78837;Laerm;72468;51.680;5.976;2024-03-08T10:52:21;46.78;37.31;59.23;;
78837;Laerm;72468;51.680;5.976;2024-03-08T10:56:21;49.5;38.06;65.95;;
78837;Laerm;72468;51.680;5.976;2024-03-08T11:00:22;47.34;37.44;58.49;;
78837;Laerm;72468;51.680;5.976;2024-03-08T11:04:21;48.11;37.37;60.57;;
78837;Laerm;72468;51.680;5.976;2024-03-08T11:08:21;46.99;37.26;55.51;;
78837;Laerm;72468;51.680;5.976;2024-03-08T11:12:22;48.94;37.18;60.42;;
78837;Laerm;72468;51.680;5.976;2024-03-08T11:16:36;47.08;37.31;60.42;;
78837;Laerm;72468;51.680;5.976;2024-03-08T11:20:23;51.64;37.26;71.8;;
78837;Laerm;72468;51.680;5.976;2024-03-08T11:24:21;48.93;37.34;64.4;;
78837;Laerm;72468;51.680;5.976;2024-03-08T11:28:23;48.48;37.75;65.46;;
78837;Laerm;72468;51.680;5.976;2024-03-08T11:32:21;49.05;39.88;59.79;;
78837;Laerm;72468;51.680;5.976;2024-03-08T11:36:22;47.47;35.03;59.35;;
78837;Laerm;72468;51.680;5.976;2024-03-08T11:40:21;49.58;38.03;69.17;;
78837;Laerm;72468;51.680;5.976;2024-03-08T11:44:21;47.43;36.97;62.54;;
78837;Laerm;72468;51.680;5.976;2024-03-08T11:48:21;45.44;35.5;59.66;;
78837;Laerm;72468;51.680;5.976;2024-03-08T11:52:21;47.51;35.14;60.91;;
78837;Laerm;72468;51.680;5.976;2024-03-08T11:56:21;48.26;36.29;62.63;;
78837;Laerm;72468;51.680;5.976;2024-03-08T12:00:21;46.48;35.38;59.92;;
78837;Laerm;72468;51.680;5.976;2024-03-08T12:04:21;48.69;35.72;60.63;;
78837;Laerm;72468;51.680;5.976;2024-03-08T12:08:21;46.02;35.85;61.92;;
78837;Laerm;72468;51.680;5.976;2024-03-08T12:12:21;46.98;36.59;58.33;;
78837;Laerm;72468;51.680;5.976;2024-03-08T12:16:21;45.7;36.05;55.99;;
78837;Laerm;72468;51.680;5.976;2024-03-08T12:20:22;48.62;38.22;59.82;;
78837;Laerm;72468;51.680;5.976;2024-03-08T12:24:21;48.64;37.5;62.29;;
78837;Laerm;72468;51.680;5.976;2024-03-08T12:28:21;49.82;37.61;61.61;;
78837;Laerm;72468;51.680;5.976;2024-03-08T12:32:21;48.67;36.39;59.99;;
78837;Laerm;72468;51.680;5.976;2024-03-08T12:36:21;48.5;38.04;65.71;;
78837;Laerm;72468;51.680;5.976;2024-03-08T12:40:29;47.44;36.42;59.15;;
78837;Laerm;72468;51.680;5.976;2024-03-08T12:44:21;48.99;36.86;61.76;;
78837;Laerm;72468;51.680;5.976;2024-03-08T12:48:21;49.25;36.55;61.74;;
78837;Laerm;72468;51.680;5.976;2024-03-08T12:52:21;48.93;36.68;61.11;;
78837;Laerm;72468;51.680;5.976;2024-03-08T13:00:21;50.14;37.59;62.47;;
78837;Laerm;72468;51.680;5.976;2024-03-08T13:04:21;49.48;38.03;60.59;;
78837;Laerm;72468;51.680;5.976;2024-03-08T13:08:21;49.83;38.04;61.3;;
78837;Laerm;72468;51.680;5.976;2024-03-08T13:12:21;47.89;37.28;56.74;;
78837;Laerm;72468;51.680;5.976;2024-03-08T13:16:21;49.89;37.78;65.39;;
78837;Laerm;72468;51.680;5.976;2024-03-08T13:20:21;46.97;38.68;58.97;;
78837;Laerm;72468;51.680;5.976;2024-03-08T13:24:21;48.4;38.14;63.75;;
78837;Laerm;72468;51.680;5.976;2024-03-08T13:28:21;47.41;37.93;59.43;;
78837;Laerm;72468;51.680;5.976;2024-03-08T13:32:22;48.34;38.3;63.79;;
78837;Laerm;72468;51.680;5.976;2024-03-08T13:36:21;47.27;37.76;58.52;;
78837;Laerm;72468;51.680;5.976;2024-03-08T13:40:21;47.79;37.37;62.05;;
78837;Laerm;72468;51.680;5.976;2024-03-08T13:44:21;48.36;37.19;59.72;;
78837;Laerm;72468;51.680;5.976;2024-03-08T13:48:21;49.71;37.2;63.61;;
78837;Laerm;72468;51.680;5.976;2024-03-08T13:52:21;49.85;35.07;70.6;;
78837;Laerm;72468;51.680;5.976;2024-03-08T13:56:21;50.12;36.75;63.94;;
78837;Laerm;72468;51.680;5.976;2024-03-08T14:00:21;47.07;34.97;58.88;;
78837;Laerm;72468;51.680;5.976;2024-03-08T14:04:21;47.39;35.13;60.3;;
78837;Laerm;72468;51.680;5.976;2024-03-08T14:08:21;50.11;36.44;62.78;;
78837;Laerm;72468;51.680;5.976;2024-03-08T14:12:21;46.97;34.57;57.09;;
78837;Laerm;72468;51.680;5.976;2024-03-08T14:16:21;48.5;35.53;62.47;;
78837;Laerm;72468;51.680;5.976;2024-03-08T14:20:21;47.28;34.44;65.82;;
78837;Laerm;72468;51.680;5.976;2024-03-08T14:24:21;48.59;35.5;61.39;;
78837;Laerm;72468;51.680;5.976;2024-03-08T14:28:21;46.43;35.21;62.21;;
78837;Laerm;72468;51.680;5.976;2024-03-08T14:32:21;47.23;35.03;59.21;;
78837;Laerm;72468;51.680;5.976;2024-03-08T14:36:21;48.31;35.73;61.77;;
78837;Laerm;72468;51.680;5.976;2024-03-08T14:40:21;48.06;33.2;62.38;;
78837;Laerm;72468;51.680;5.976;2024-03-08T14:44:21;48.75;35.12;66.12;;
78837;Laerm;72468;51.680;5.976;2024-03-08T14:48:21;49.5;36.98;60;;
78837;Laerm;72468;51.680;5.976;2024-03-08T14:52:21;47.96;34.71;60.98;;
78837;Laerm;72468;51.680;5.976;2024-03-08T14:56:21;46.87;34.01;59.15;;
78837;Laerm;72468;51.680;5.976;2024-03-08T15:00:21;47.69;34.13;63.55;;
78837;Laerm;72468;51.680;5.976;2024-03-08T15:04:21;47.49;34.84;56.43;;
78837;Laerm;72468;51.680;5.976;2024-03-08T15:08:21;47.14;35.55;56.44;;
78837;Laerm;72468;51.680;5.976;2024-03-08T15:12:21;48.75;35.6;61.57;;
78837;Laerm;72468;51.680;5.976;2024-03-08T15:16:21;47.77;34.11;59.79;;
78837;Laerm;72468;51.680;5.976;2024-03-08T15:20:21;45.67;35.21;58.22;;
78837;Laerm;72468;51.680;5.976;2024-03-08T15:24:21;47.92;36.33;61.31;;
78837;Laerm;72468;51.680;5.976;2024-03-08T15:28:21;46.72;34.8;59.21;;
78837;Laerm;72468;51.680;5.976;2024-03-08T15:32:21;49.89;38.22;65.21;;
78837;Laerm;72468;51.680;5.976;2024-03-08T15:36:21;47.44;34.7;56.37;;
78837;Laerm;72468;51.680;5.976;2024-03-08T15:40:21;47.11;35.17;57.55;;
78837;Laerm;72468;51.680;5.976;2024-03-08T15:44:21;46.1;34.13;55.73;;
78837;Laerm;72468;51.680;5.976;2024-03-08T15:48:21;47.82;35.93;56.92;;
78837;Laerm;72468;51.680;5.976;2024-03-08T15:52:21;47.46;34.7;60.64;;
78837;Laerm;72468;51.680;5.976;2024-03-08T15:56:21;45.45;32.87;55.5;;
78837;Laerm;72468;51.680;5.976;2024-03-08T16:00:22;46.79;33.1;58.17;;
78837;Laerm;72468;51.680;5.976;2024-03-08T16:04:21;46.78;33.09;57.51;;
78837;Laerm;72468;51.680;5.976;2024-03-08T16:08:21;46.96;33.51;58.67;;
78837;Laerm;72468;51.680;5.976;2024-03-08T16:12:21;45.42;33.26;57.79;;
78837;Laerm;72468;51.680;5.976;2024-03-08T16:16:21;46.85;33.19;64.36;;
78837;Laerm;72468;51.680;5.976;2024-03-08T16:20:21;46.29;34.21;64.17;;
78837;Laerm;72468;51.680;5.976;2024-03-08T16:24:21;45.61;33.12;56.96;;
78837;Laerm;72468;51.680;5.976;2024-03-08T16:28:21;43;33.56;56.1;;
78837;Laerm;72468;51.680;5.976;2024-03-08T16:32:21;46.29;35.84;57.24;;
78837;Laerm;72468;51.680;5.976;2024-03-08T16:36:21;47.05;37.13;57.76;;
78837;Laerm;72468;51.680;5.976;2024-03-08T16:40:21;46.55;36.15;60.09;;
78837;Laerm;72468;51.680;5.976;2024-03-08T16:44:21;48.48;36.64;63.83;;
78837;Laerm;72468;51.680;5.976;2024-03-08T16:48:21;45.89;35.36;55.17;;
78837;Laerm;72468;51.680;5.976;2024-03-08T16:52:21;47.19;36.34;57.71;;
78837;Laerm;72468;51.680;5.976;2024-03-08T16:56:21;47.77;35.43;59.13;;
78837;Laerm;72468;51.680;5.976;2024-03-08T17:00:22;47.31;37.17;60.82;;
78837;Laerm;72468;51.680;5.976;2024-03-08T17:04:21;48.44;35.19;59.21;;
78837;Laerm;72468;51.680;5.976;2024-03-08T17:08:21;48.4;36.29;62.87;;
78837;Laerm;72468;51.680;5.976;2024-03-08T17:12:21;45.83;35.36;67.64;;
78837;Laerm;72468;51.680;5.976;2024-03-08T17:16:21;44.89;35.66;59.05;;
78837;Laerm;72468;51.680;5.976;2024-03-08T17:20:21;44.84;33.97;55.48;;
78837;Laerm;72468;51.680;5.976;2024-03-08T17:24:21;46.17;35.49;58.99;;
78837;Laerm;72468;51.680;5.976;2024-03-08T17:28:21;44.14;36.09;57.03;;
78837;Laerm;72468;51.680;5.976;2024-03-08T17:36:21;45.92;35.27;56.22;;
78837;Laerm;72468;51.680;5.976;2024-03-08T17:40:22;48.64;35.61;60.96;;
78837;Laerm;72468;51.680;5.976;2024-03-08T17:44:22;50.47;35.8;60.59;;
78837;Laerm;72468;51.680;5.976;2024-03-08T17:48:21;51.98;35.03;64.21;;
78837;Laerm;72468;51.680;5.976;2024-03-08T17:52:21;50.18;35.28;64.41;;
78837;Laerm;72468;51.680;5.976;2024-03-08T17:56:21;45.51;36.4;56.7;;
78837;Laerm;72468;51.680;5.976;2024-03-08T18:00:22;43.96;34.83;56.03;;
78837;Laerm;72468;51.680;5.976;2024-03-08T18:04:21;44.4;36.08;55.93;;
78837;Laerm;72468;51.680;5.976;2024-03-08T18:08:21;43.56;35.89;55.33;;
78837;Laerm;72468;51.680;5.976;2024-03-08T18:12:21;43.29;34.51;56.3;;
78837;Laerm;72468;51.680;5.976;2024-03-08T18:16:21;45.14;35.17;57.81;;
78837;Laerm;72468;51.680;5.976;2024-03-08T18:20:22;43.05;34.94;54.93;;
78837;Laerm;72468;51.680;5.976;2024-03-08T18:24:21;40.47;34.94;54.88;;
78837;Laerm;72468;51.680;5.976;2024-03-08T18:28:21;42.03;35.29;54.72;;
78837;Laerm;72468;51.680;5.976;2024-03-08T18:32:21;43.71;35.28;52.87;;
78837;Laerm;72468;51.680;5.976;2024-03-08T18:36:21;44.42;35.02;58.23;;
78837;Laerm;72468;51.680;5.976;2024-03-08T18:40:22;44.53;35.99;56.05;;
78837;Laerm;72468;51.680;5.976;2024-03-08T18:44:21;42.21;35.46;53.87;;
78837;Laerm;72468;51.680;5.976;2024-03-08T18:48:21;42.6;34.38;55.78;;
78837;Laerm;72468;51.680;5.976;2024-03-08T18:52:21;42.79;34.1;55.58;;
78837;Laerm;72468;51.680;5.976;2024-03-08T18:56:21;42.6;33.78;57.95;;
78837;Laerm;72468;51.680;5.976;2024-03-08T19:00:21;43.3;34.96;56.45;;
78837;Laerm;72468;51.680;5.976;2024-03-08T19:04:21;42.33;34.18;54.98;;
78837;Laerm;72468;51.680;5.976;2024-03-08T19:08:21;43.24;35.6;55.59;;
78837;Laerm;72468;51.680;5.976;2024-03-08T19:12:21;41.77;34.28;54.09;;
78837;Laerm;72468;51.680;5.976;2024-03-08T19:16:21;42.58;35.27;56.14;;
78837;Laerm;72468;51.680;5.976;2024-03-08T19:20:22;42.23;35.39;56.99;;
78837;Laerm;72468;51.680;5.976;2024-03-08T19:24:21;42.46;35.06;53.84;;
78837;Laerm;72468;51.680;5.976;2024-03-08T19:28:21;41.97;35.07;54.36;;
78837;Laerm;72468;51.680;5.976;2024-03-08T19:32:21;43.17;34.88;55.27;;
78837;Laerm;72468;51.680;5.976;2024-03-08T19:36:21;41.56;35.42;54.65;;
78837;Laerm;72468;51.680;5.976;2024-03-08T19:40:22;41.04;35;57.26;;
78837;Laerm;72468;51.680;5.976;2024-03-08T19:44:21;41.91;34.65;57.1;;
78837;Laerm;72468;51.680;5.976;2024-03-08T19:48:21;40.06;34.32;52.4;;
78837;Laerm;72468;51.680;5.976;2024-03-08T19:52:21;42.82;33.97;57.57;;
78837;Laerm;72468;51.680;5.976;2024-03-08T19:56:21;41.56;35.03;57.2;;
78837;Laerm;72468;51.680;5.976;2024-03-08T20:00:21;40.88;33.47;52.04;;
78837;Laerm;72468;51.680;5.976;2024-03-08T20:04:21;40.95;33.73;54.27;;
78837;Laerm;72468;51.680;5.976;2024-03-08T20:08:21;42.52;35.4;55.57;;
78837;Laerm;72468;51.680;5.976;2024-03-08T20:12:21;41.07;34.54;55.27;;
78837;Laerm;72468;51.680;5.976;2024-03-08T20:16:21;42.29;34.64;55.37;;
78837;Laerm;72468;51.680;5.976;2024-03-08T20:20:21;40.14;35.88;51.49;;
78837;Laerm;72468;51.680;5.976;2024-03-08T20:24:21;43.77;37.67;57.43;;
78837;Laerm;72468;51.680;5.976;2024-03-08T20:28:21;41.07;37.19;52.06;;
78837;Laerm;72468;51.680;5.976;2024-03-08T20:32:21;41.13;36.92;53.36;;
78837;Laerm;72468;51.680;5.976;2024-03-08T20:36:21;43.46;37.49;55.17;;
78837;Laerm;72468;51.680;5.976;2024-03-08T20:40:22;40.77;36.51;50.29;;
78837;Laerm;72468;51.680;5.976;2024-03-08T20:44:21;40.53;34.8;58.95;;
78837;Laerm;72468;51.680;5.976;2024-03-08T20:52:21;41.99;35.42;55.87;;
78837;Laerm;72468;51.680;5.976;2024-03-08T20:56:21;40.29;34.86;53.22;;
78837;Laerm;72468;51.680;5.976;2024-03-08T21:00:22;42.7;35.9;54.63;;
78837;Laerm;72468;51.680;5.976;2024-03-08T21:04:21;43.51;35.33;54.52;;
78837;Laerm;72468;51.680;5.976;2024-03-08T21:08:21;45.18;36.84;56.73;;
78837;Laerm;72468;51.680;5.976;2024-03-08T21:12:21;42.75;36.88;55.31;;
78837;Laerm;72468;51.680;5.976;2024-03-08T21:16:21;41.57;36.49;54.66;;
78837;Laerm;72468;51.680;5.976;2024-03-08T21:20:21;42.3;36.63;54.59;;
78837;Laerm;72468;51.680;5.976;2024-03-08T21:24:21;40.15;34.5;54.78;;
78837;Laerm;72468;51.680;5.976;2024-03-08T21:28:21;42.21;36.57;60.83;;
78837;Laerm;72468;51.680;5.976;2024-03-08T21:32:21;40.69;34.73;56.57;;
78837;Laerm;72468;51.680;5.976;2024-03-08T21:36:21;41.73;36.61;54.87;;
78837;Laerm;72468;51.680;5.976;2024-03-08T21:40:21;41.83;37.37;51.47;;
78837;Laerm;72468;51.680;5.976;2024-03-08T21:44:21;41.58;36.6;56.7;;
78837;Laerm;72468;51.680;5.976;2024-03-08T21:48:21;39.99;34.92;52.41;;
78837;Laerm;72468;51.680;5.976;2024-03-08T21:52:21;41.51;36.37;55.97;;
78837;Laerm;72468;51.680;5.976;2024-03-08T21:56:21;39.57;37.32;48.9;;
78837;Laerm;72468;51.680;5.976;2024-03-08T22:00:21;40.68;35.84;54.94;;
78837;Laerm;72468;51.680;5.976;2024-03-08T22:04:21;39.92;34.38;53.03;;
78837;Laerm;72468;51.680;5.976;2024-03-08T22:08:21;41.95;34.88;57.55;;
78837;Laerm;72468;51.680;5.976;2024-03-08T22:12:21;39.3;34.39;52.01;;
78837;Laerm;72468;51.680;5.976;2024-03-08T22:16:21;40.99;32.8;58.92;;
78837;Laerm;72468;51.680;5.976;2024-03-08T22:20:21;38.36;32.77;52.97;;
78837;Laerm;72468;51.680;5.976;2024-03-08T22:24:21;39.3;32.61;55.26;;
78837;Laerm;72468;51.680;5.976;2024-03-08T22:28:21;34.4;32.4;42.66;;
78837;Laerm;72468;51.680;5.976;2024-03-08T22:32:21;35.28;32.78;47.79;;
78837;Laerm;72468;51.680;5.976;2024-03-08T22:36:21;37.91;32.28;52.82;;
78837;Laerm;72468;51.680;5.976;2024-03-08T22:40:21;35.89;32.37;48.93;;